Brunei International Airport
WBSB : now visible

Airfield :











YOU CAN JOIN US ON...

 
LOGIN :

Register | Disclaimer

   EN    FR    IT 

 









Legend :    VFR   Marginal VFR   IFR   Intensive IFR   Very Intensive IFR
Visi :
Ceiling :
>= 8 km
>= 3000ft
5 to 8 km
1000 to 3000 ft
1500m to 5 km
500 to 1000 ft
800 to 1500m
200 to 500 ft
< 800m
< 200 ft
Symbols :   Thunderstorms  Fog  Heavy snow  Heavy precipitations  Wind > 20 kt






- Airport Elevation : 73 ft
- IATA code : BWN


WBSB - Brunei International

CURRENT METAR :
  • 281200Z 01007KT 9999 SCT014 SCT140 BKN300 28/25 Q1010 NOSIG

EXPIRED METARs :
  • 281130Z 01005KT 9999 SCT014 BKN300 27/25 Q1009 NOSIG
  • 281100Z 01006KT 9999 SCT015 FEW016CB BKN300 28/25 Q1009 NOSIG
  • 281030Z 36008KT 9999 SCT015 FEW016CB BKN300 28/25 Q1008 NOSIG
  • 281000Z 35006KT 9999 SCT015 FEW016CB BKN300 28/25 Q1008 NOSIG
  • 280930Z 34007KT 9999 SCT015 FEW016CB BKN300 29/25 Q1008 NOSIG

TAF TAF WBSB
Valid from the 28 at 12:00 until the 29 at 18:00 UTC


281050Z 2812/2918 02006KT 9999 SCT015 FEW016CB
PROB40
TEMPO 2818/2900 5000 SHRA SCT014



MET'MAP, your aeronautical weather chart ! - Copyright ORBIFLY December 2007 - Disclaimer

ORBIFLY MET'MAP TEAM :

Programming & Development : Alexandra Zaïnal
Concept & original design : Baudouin d'Aumeries
Assistance for programming : Marc-Olivier Méhu
Technical & hardware support : Manuel Goepfert

Contact : metmap@orbifly.com




SOURCES & CREDITS :

   NOAA       Earth
Advisory